sensor_id;sensor_type;location;lat;lon;timestamp;temperature;humidity
20102;DHT22;10210;52.284;9.892;2024-02-26T00:01:43;7.60;99.90
20102;DHT22;10210;52.284;9.892;2024-02-26T00:04:10;7.60;99.90
20102;DHT22;10210;52.284;9.892;2024-02-26T00:06:36;7.50;99.90
20102;DHT22;10210;52.284;9.892;2024-02-26T00:09:02;7.50;99.90
20102;DHT22;10210;52.284;9.892;2024-02-26T00:11:31;7.50;99.90
20102;DHT22;10210;52.284;9.892;2024-02-26T00:13:56;7.50;99.90
20102;DHT22;10210;52.284;9.892;2024-02-26T00:16:23;7.50;99.90
20102;DHT22;10210;52.284;9.892;2024-02-26T00:18:49;7.40;99.90
20102;DHT22;10210;52.284;9.892;2024-02-26T00:21:14;7.40;99.90
20102;DHT22;10210;52.284;9.892;2024-02-26T00:23:40;7.40;99.90
20102;DHT22;10210;52.284;9.892;2024-02-26T00:26:06;7.40;99.90
20102;DHT22;10210;52.284;9.892;2024-02-26T00:28:33;7.40;99.90
20102;DHT22;10210;52.284;9.892;2024-02-26T00:30:59;7.30;99.90
20102;DHT22;10210;52.284;9.892;2024-02-26T00:33:24;7.30;99.90
20102;DHT22;10210;52.284;9.892;2024-02-26T00:35:50;7.30;99.90
20102;DHT22;10210;52.284;9.892;2024-02-26T00:38:16;7.30;99.90
20102;DHT22;10210;52.284;9.892;2024-02-26T00:40:41;7.30;99.90
20102;DHT22;10210;52.284;9.892;2024-02-26T00:43:07;7.30;99.90
20102;DHT22;10210;52.284;9.892;2024-02-26T00:45:33;7.20;99.90
20102;DHT22;10210;52.284;9.892;2024-02-26T00:47:59;7.20;99.90
20102;DHT22;10210;52.284;9.892;2024-02-26T00:50:30;7.20;99.90
20102;DHT22;10210;52.284;9.892;2024-02-26T00:52:56;7.20;99.90
20102;DHT22;10210;52.284;9.892;2024-02-26T00:55:21;7.10;99.90
20102;DHT22;10210;52.284;9.892;2024-02-26T00:57:47;7.10;99.90
20102;DHT22;10210;52.284;9.892;2024-02-26T01:00:13;7.10;99.90
20102;DHT22;10210;52.284;9.892;2024-02-26T01:02:39;7.10;99.90
20102;DHT22;10210;52.284;9.892;2024-02-26T01:05:07;7.00;99.90
20102;DHT22;10210;52.284;9.892;2024-02-26T01:07:36;7.00;99.90
20102;DHT22;10210;52.284;9.892;2024-02-26T01:10:02;7.00;99.90
20102;DHT22;10210;52.284;9.892;2024-02-26T01:12:28;7.00;99.90
20102;DHT22;10210;52.284;9.892;2024-02-26T01:14:55;7.00;99.90
20102;DHT22;10210;52.284;9.892;2024-02-26T01:17:20;7.00;99.90
20102;DHT22;10210;52.284;9.892;2024-02-26T01:19:46;7.00;99.90
20102;DHT22;10210;52.284;9.892;2024-02-26T01:22:12;7.00;99.90
20102;DHT22;10210;52.284;9.892;2024-02-26T01:24:37;7.00;99.90
20102;DHT22;10210;52.284;9.892;2024-02-26T01:27:03;7.00;99.90
20102;DHT22;10210;52.284;9.892;2024-02-26T01:29:29;7.00;99.90
20102;DHT22;10210;52.284;9.892;2024-02-26T01:31:55;7.00;99.90
20102;DHT22;10210;52.284;9.892;2024-02-26T01:34:20;7.00;99.90
20102;DHT22;10210;52.284;9.892;2024-02-26T01:36:46;7.00;99.90
20102;DHT22;10210;52.284;9.892;2024-02-26T01:39:13;7.00;99.90
20102;DHT22;10210;52.284;9.892;2024-02-26T01:41:39;7.00;99.90
20102;DHT22;10210;52.284;9.892;2024-02-26T01:44:05;7.00;99.90
20102;DHT22;10210;52.284;9.892;2024-02-26T01:46:33;7.00;99.90
20102;DHT22;10210;52.284;9.892;2024-02-26T01:49:02;7.00;99.90
20102;DHT22;10210;52.284;9.892;2024-02-26T01:51:29;7.00;99.90
20102;DHT22;10210;52.284;9.892;2024-02-26T01:53:58;7.00;99.90
20102;DHT22;10210;52.284;9.892;2024-02-26T01:56:26;7.00;99.90
20102;DHT22;10210;52.284;9.892;2024-02-26T01:58:55;7.00;99.90
20102;DHT22;10210;52.284;9.892;2024-02-26T02:01:28;7.00;99.90
20102;DHT22;10210;52.284;9.892;2024-02-26T02:03:57;7.00;99.90
20102;DHT22;10210;52.284;9.892;2024-02-26T02:06:23;7.00;99.90
20102;DHT22;10210;52.284;9.892;2024-02-26T02:08:49;7.00;99.90
20102;DHT22;10210;52.284;9.892;2024-02-26T02:11:15;7.00;99.90
20102;DHT22;10210;52.284;9.892;2024-02-26T02:13:43;7.00;99.90
20102;DHT22;10210;52.284;9.892;2024-02-26T02:16:09;7.00;99.90
20102;DHT22;10210;52.284;9.892;2024-02-26T02:18:35;6.90;99.90
20102;DHT22;10210;52.284;9.892;2024-02-26T02:21:01;7.00;99.90
20102;DHT22;10210;52.284;9.892;2024-02-26T02:23:27;7.00;99.90
20102;DHT22;10210;52.284;9.892;2024-02-26T02:25:53;7.00;99.90
20102;DHT22;10210;52.284;9.892;2024-02-26T02:28:20;7.00;99.90
20102;DHT22;10210;52.284;9.892;2024-02-26T02:30:47;6.90;99.90
20102;DHT22;10210;52.284;9.892;2024-02-26T02:33:14;7.00;99.90
20102;DHT22;10210;52.284;9.892;2024-02-26T02:35:41;6.90;99.90
20102;DHT22;10210;52.284;9.892;2024-02-26T02:38:07;6.90;99.90
20102;DHT22;10210;52.284;9.892;2024-02-26T02:40:33;6.90;99.90
20102;DHT22;10210;52.284;9.892;2024-02-26T02:42:58;7.00;99.90
20102;DHT22;10210;52.284;9.892;2024-02-26T02:45:25;6.90;99.90
20102;DHT22;10210;52.284;9.892;2024-02-26T02:47:51;6.90;99.90
20102;DHT22;10210;52.284;9.892;2024-02-26T02:50:16;6.90;99.90
20102;DHT22;10210;52.284;9.892;2024-02-26T02:52:46;6.80;99.90
20102;DHT22;10210;52.284;9.892;2024-02-26T02:55:12;6.80;99.90
20102;DHT22;10210;52.284;9.892;2024-02-26T02:57:38;6.80;99.90
20102;DHT22;10210;52.284;9.892;2024-02-26T03:00:09;6.80;99.90
20102;DHT22;10210;52.284;9.892;2024-02-26T03:02:35;6.80;99.90
20102;DHT22;10210;52.284;9.892;2024-02-26T03:05:02;6.80;99.90
20102;DHT22;10210;52.284;9.892;2024-02-26T03:07:28;6.70;99.90
20102;DHT22;10210;52.284;9.892;2024-02-26T03:09:54;6.70;99.90
20102;DHT22;10210;52.284;9.892;2024-02-26T03:12:20;6.70;99.90
20102;DHT22;10210;52.284;9.892;2024-02-26T03:14:45;6.70;99.90
20102;DHT22;10210;52.284;9.892;2024-02-26T03:17:11;6.70;99.90
20102;DHT22;10210;52.284;9.892;2024-02-26T03:19:37;6.70;99.90
20102;DHT22;10210;52.284;9.892;2024-02-26T03:22:03;6.70;99.90
20102;DHT22;10210;52.284;9.892;2024-02-26T03:24:29;6.70;99.90
20102;DHT22;10210;52.284;9.892;2024-02-26T03:26:54;6.70;99.90
20102;DHT22;10210;52.284;9.892;2024-02-26T03:29:20;6.60;99.90
20102;DHT22;10210;52.284;9.892;2024-02-26T03:31:46;6.60;99.90
20102;DHT22;10210;52.284;9.892;2024-02-26T03:34:11;6.60;99.90
20102;DHT22;10210;52.284;9.892;2024-02-26T03:36:39;6.60;99.90
20102;DHT22;10210;52.284;9.892;2024-02-26T03:39:04;6.60;99.90
20102;DHT22;10210;52.284;9.892;2024-02-26T03:41:33;6.60;99.90
20102;DHT22;10210;52.284;9.892;2024-02-26T03:43:59;6.50;99.90
20102;DHT22;10210;52.284;9.892;2024-02-26T03:46:25;6.50;99.90
20102;DHT22;10210;52.284;9.892;2024-02-26T03:48:50;6.50;99.90
20102;DHT22;10210;52.284;9.892;2024-02-26T03:51:16;6.50;99.90
20102;DHT22;10210;52.284;9.892;2024-02-26T03:53:42;6.50;99.90
20102;DHT22;10210;52.284;9.892;2024-02-26T03:56:08;6.50;99.90
20102;DHT22;10210;52.284;9.892;2024-02-26T03:58:36;6.50;99.90
20102;DHT22;10210;52.284;9.892;2024-02-26T04:01:01;6.50;99.90
20102;DHT22;10210;52.284;9.892;2024-02-26T04:03:27;6.40;99.90
20102;DHT22;10210;52.284;9.892;2024-02-26T04:05:53;6.50;99.90
20102;DHT22;10210;52.284;9.892;2024-02-26T04:08:18;6.50;99.90
20102;DHT22;10210;52.284;9.892;2024-02-26T04:10:44;6.50;99.90
20102;DHT22;10210;52.284;9.892;2024-02-26T04:13:10;6.50;99.90
20102;DHT22;10210;52.284;9.892;2024-02-26T04:15:35;6.40;99.90
20102;DHT22;10210;52.284;9.892;2024-02-26T04:18:01;6.40;99.90
20102;DHT22;10210;52.284;9.892;2024-02-26T04:20:28;6.40;99.90
20102;DHT22;10210;52.284;9.892;2024-02-26T04:22:53;6.40;99.90
20102;DHT22;10210;52.284;9.892;2024-02-26T04:25:19;6.40;99.90
20102;DHT22;10210;52.284;9.892;2024-02-26T04:27:45;6.40;99.90
20102;DHT22;10210;52.284;9.892;2024-02-26T04:30:11;6.40;99.90
20102;DHT22;10210;52.284;9.892;2024-02-26T04:32:36;6.50;99.90
20102;DHT22;10210;52.284;9.892;2024-02-26T04:35:03;6.50;99.90
20102;DHT22;10210;52.284;9.892;2024-02-26T04:37:28;6.50;99.90
20102;DHT22;10210;52.284;9.892;2024-02-26T04:39:58;6.50;99.90
20102;DHT22;10210;52.284;9.892;2024-02-26T04:42:24;6.50;99.90
20102;DHT22;10210;52.284;9.892;2024-02-26T04:44:50;6.50;99.90
20102;DHT22;10210;52.284;9.892;2024-02-26T04:47:15;6.50;99.90
20102;DHT22;10210;52.284;9.892;2024-02-26T04:49:41;6.50;99.90
20102;DHT22;10210;52.284;9.892;2024-02-26T04:52:06;6.50;99.90
20102;DHT22;10210;52.284;9.892;2024-02-26T04:54:32;6.50;99.90
20102;DHT22;10210;52.284;9.892;2024-02-26T04:56:58;6.50;99.90
20102;DHT22;10210;52.284;9.892;2024-02-26T04:59:24;6.50;99.90
20102;DHT22;10210;52.284;9.892;2024-02-26T05:01:49;6.50;99.90
20102;DHT22;10210;52.284;9.892;2024-02-26T05:04:17;6.60;99.90
20102;DHT22;10210;52.284;9.892;2024-02-26T05:06:44;6.60;99.90
20102;DHT22;10210;52.284;9.892;2024-02-26T05:09:10;6.60;99.90
20102;DHT22;10210;52.284;9.892;2024-02-26T05:11:36;6.60;99.90
20102;DHT22;10210;52.284;9.892;2024-02-26T05:14:02;6.60;99.90
20102;DHT22;10210;52.284;9.892;2024-02-26T05:16:28;6.60;99.90
20102;DHT22;10210;52.284;9.892;2024-02-26T05:18:55;6.60;99.90
20102;DHT22;10210;52.284;9.892;2024-02-26T05:21:21;6.60;99.90
20102;DHT22;10210;52.284;9.892;2024-02-26T05:23:46;6.60;99.90
20102;DHT22;10210;52.284;9.892;2024-02-26T05:26:18;6.60;99.90
20102;DHT22;10210;52.284;9.892;2024-02-26T05:28:45;6.60;99.90
20102;DHT22;10210;52.284;9.892;2024-02-26T05:31:13;6.60;99.90
20102;DHT22;10210;52.284;9.892;2024-02-26T05:33:39;6.60;99.90
20102;DHT22;10210;52.284;9.892;2024-02-26T05:36:05;6.60;99.90
20102;DHT22;10210;52.284;9.892;2024-02-26T05:38:31;6.60;99.90
20102;DHT22;10210;52.284;9.892;2024-02-26T05:41:00;6.60;99.90
20102;DHT22;10210;52.284;9.892;2024-02-26T05:43:26;6.60;99.90
20102;DHT22;10210;52.284;9.892;2024-02-26T05:45:52;6.60;99.90
20102;DHT22;10210;52.284;9.892;2024-02-26T05:48:19;6.60;99.90
20102;DHT22;10210;52.284;9.892;2024-02-26T05:50:45;6.60;99.90
20102;DHT22;10210;52.284;9.892;2024-02-26T05:53:11;6.60;99.90
20102;DHT22;10210;52.284;9.892;2024-02-26T05:55:37;6.60;99.90
20102;DHT22;10210;52.284;9.892;2024-02-26T05:58:03;6.60;99.90
20102;DHT22;10210;52.284;9.892;2024-02-26T06:00:29;6.60;99.90
20102;DHT22;10210;52.284;9.892;2024-02-26T06:02:55;6.60;99.90
20102;DHT22;10210;52.284;9.892;2024-02-26T06:05:20;6.60;99.90
20102;DHT22;10210;52.284;9.892;2024-02-26T06:07:46;6.60;99.90
20102;DHT22;10210;52.284;9.892;2024-02-26T06:10:12;6.60;99.90
20102;DHT22;10210;52.284;9.892;2024-02-26T06:12:39;6.60;99.90
20102;DHT22;10210;52.284;9.892;2024-02-26T06:15:05;6.60;99.90
20102;DHT22;10210;52.284;9.892;2024-02-26T06:17:32;6.60;99.90
20102;DHT22;10210;52.284;9.892;2024-02-26T06:19:58;6.60;99.90
20102;DHT22;10210;52.284;9.892;2024-02-26T06:22:25;6.60;99.90
20102;DHT22;10210;52.284;9.892;2024-02-26T06:24:51;6.60;99.90
20102;DHT22;10210;52.284;9.892;2024-02-26T06:27:18;6.60;99.90
20102;DHT22;10210;52.284;9.892;2024-02-26T06:29:47;6.60;99.90
20102;DHT22;10210;52.284;9.892;2024-02-26T06:32:13;6.50;99.90
20102;DHT22;10210;52.284;9.892;2024-02-26T06:34:39;6.50;99.90
20102;DHT22;10210;52.284;9.892;2024-02-26T06:37:07;6.60;99.90
20102;DHT22;10210;52.284;9.892;2024-02-26T06:39:33;6.60;99.90
20102;DHT22;10210;52.284;9.892;2024-02-26T06:41:59;6.60;99.90
20102;DHT22;10210;52.284;9.892;2024-02-26T06:44:28;6.70;99.90
20102;DHT22;10210;52.284;9.892;2024-02-26T06:47:00;6.60;99.90
20102;DHT22;10210;52.284;9.892;2024-02-26T06:49:27;6.60;99.90
20102;DHT22;10210;52.284;9.892;2024-02-26T06:51:53;6.60;99.90
20102;DHT22;10210;52.284;9.892;2024-02-26T06:54:19;6.70;99.90
20102;DHT22;10210;52.284;9.892;2024-02-26T06:56:45;6.70;99.90
20102;DHT22;10210;52.284;9.892;2024-02-26T06:59:10;6.70;99.90
20102;DHT22;10210;52.284;9.892;2024-02-26T07:01:36;6.70;99.90
20102;DHT22;10210;52.284;9.892;2024-02-26T07:04:02;6.70;99.90
20102;DHT22;10210;52.284;9.892;2024-02-26T07:06:27;6.70;99.90
20102;DHT22;10210;52.284;9.892;2024-02-26T07:08:53;6.70;99.90
20102;DHT22;10210;52.284;9.892;2024-02-26T07:11:19;6.70;99.90
20102;DHT22;10210;52.284;9.892;2024-02-26T07:13:46;6.70;99.90
20102;DHT22;10210;52.284;9.892;2024-02-26T07:16:12;6.70;99.90
20102;DHT22;10210;52.284;9.892;2024-02-26T07:18:39;6.80;99.90
20102;DHT22;10210;52.284;9.892;2024-02-26T07:21:05;6.80;99.90
20102;DHT22;10210;52.284;9.892;2024-02-26T07:23:31;6.80;99.90
20102;DHT22;10210;52.284;9.892;2024-02-26T07:25:57;6.80;99.90
20102;DHT22;10210;52.284;9.892;2024-02-26T07:28:24;6.80;99.90
20102;DHT22;10210;52.284;9.892;2024-02-26T07:30:49;6.80;99.90
20102;DHT22;10210;52.284;9.892;2024-02-26T07:33:16;6.80;99.90
20102;DHT22;10210;52.284;9.892;2024-02-26T07:35:41;6.90;99.90
20102;DHT22;10210;52.284;9.892;2024-02-26T07:38:07;6.90;99.90
20102;DHT22;10210;52.284;9.892;2024-02-26T07:40:33;6.90;99.90
20102;DHT22;10210;52.284;9.892;2024-02-26T07:42:58;6.90;99.90
20102;DHT22;10210;52.284;9.892;2024-02-26T07:45:24;6.90;99.90
20102;DHT22;10210;52.284;9.892;2024-02-26T07:47:50;6.90;99.90
20102;DHT22;10210;52.284;9.892;2024-02-26T07:50:17;7.00;99.90
20102;DHT22;10210;52.284;9.892;2024-02-26T07:52:45;7.00;99.90
20102;DHT22;10210;52.284;9.892;2024-02-26T07:55:11;7.00;99.90
20102;DHT22;10210;52.284;9.892;2024-02-26T07:57:36;7.00;99.90
20102;DHT22;10210;52.284;9.892;2024-02-26T08:00:03;7.00;99.90
20102;DHT22;10210;52.284;9.892;2024-02-26T08:02:30;7.00;99.90
20102;DHT22;10210;52.284;9.892;2024-02-26T08:04:55;7.00;99.90
20102;DHT22;10210;52.284;9.892;2024-02-26T08:07:21;7.00;99.90
20102;DHT22;10210;52.284;9.892;2024-02-26T08:09:47;7.10;99.90
20102;DHT22;10210;52.284;9.892;2024-02-26T08:12:13;7.10;99.90
20102;DHT22;10210;52.284;9.892;2024-02-26T08:14:40;7.10;99.90
20102;DHT22;10210;52.284;9.892;2024-02-26T08:17:06;7.10;99.90
20102;DHT22;10210;52.284;9.892;2024-02-26T08:19:33;7.10;99.90
20102;DHT22;10210;52.284;9.892;2024-02-26T08:22:01;7.20;99.90
20102;DHT22;10210;52.284;9.892;2024-02-26T08:24:27;7.10;99.90
20102;DHT22;10210;52.284;9.892;2024-02-26T08:26:53;7.20;99.90
20102;DHT22;10210;52.284;9.892;2024-02-26T08:29:19;7.20;99.90
20102;DHT22;10210;52.284;9.892;2024-02-26T08:31:45;7.20;99.90
20102;DHT22;10210;52.284;9.892;2024-02-26T08:34:11;7.20;99.90
20102;DHT22;10210;52.284;9.892;2024-02-26T08:36:36;7.30;99.90
20102;DHT22;10210;52.284;9.892;2024-02-26T08:39:02;7.30;99.90
20102;DHT22;10210;52.284;9.892;2024-02-26T08:41:28;7.30;99.90
20102;DHT22;10210;52.284;9.892;2024-02-26T08:43:54;7.30;99.90
20102;DHT22;10210;52.284;9.892;2024-02-26T08:46:20;7.30;99.90
20102;DHT22;10210;52.284;9.892;2024-02-26T08:48:46;7.30;99.90
20102;DHT22;10210;52.284;9.892;2024-02-26T08:51:12;7.40;99.90
20102;DHT22;10210;52.284;9.892;2024-02-26T08:53:38;7.40;99.90
20102;DHT22;10210;52.284;9.892;2024-02-26T08:56:04;7.40;99.90
20102;DHT22;10210;52.284;9.892;2024-02-26T08:58:31;7.40;99.90
20102;DHT22;10210;52.284;9.892;2024-02-26T09:00:57;7.40;99.90
20102;DHT22;10210;52.284;9.892;2024-02-26T09:03:22;7.40;99.90
20102;DHT22;10210;52.284;9.892;2024-02-26T09:05:48;7.40;99.90
20102;DHT22;10210;52.284;9.892;2024-02-26T09:08:14;7.40;99.90
20102;DHT22;10210;52.284;9.892;2024-02-26T09:10:40;7.50;99.90
20102;DHT22;10210;52.284;9.892;2024-02-26T09:13:06;7.50;99.90
20102;DHT22;10210;52.284;9.892;2024-02-26T09:15:32;7.50;99.90
20102;DHT22;10210;52.284;9.892;2024-02-26T09:17:57;7.50;99.90
20102;DHT22;10210;52.284;9.892;2024-02-26T09:20:23;7.50;99.90
20102;DHT22;10210;52.284;9.892;2024-02-26T09:22:50;7.60;99.90
20102;DHT22;10210;52.284;9.892;2024-02-26T09:25:16;7.60;99.90
20102;DHT22;10210;52.284;9.892;2024-02-26T09:27:43;7.60;99.90
20102;DHT22;10210;52.284;9.892;2024-02-26T09:30:11;7.60;99.90
20102;DHT22;10210;52.284;9.892;2024-02-26T09:32:38;7.70;99.90
20102;DHT22;10210;52.284;9.892;2024-02-26T09:35:05;7.70;99.90
20102;DHT22;10210;52.284;9.892;2024-02-26T09:37:32;7.70;99.90
20102;DHT22;10210;52.284;9.892;2024-02-26T09:39:59;7.80;99.90
20102;DHT22;10210;52.284;9.892;2024-02-26T09:42:31;7.80;99.90
20102;DHT22;10210;52.284;9.892;2024-02-26T09:45:00;7.90;99.90
20102;DHT22;10210;52.284;9.892;2024-02-26T09:47:31;7.80;99.90
20102;DHT22;10210;52.284;9.892;2024-02-26T09:49:59;7.90;99.90
20102;DHT22;10210;52.284;9.892;2024-02-26T09:52:28;7.90;99.90
20102;DHT22;10210;52.284;9.892;2024-02-26T09:54:56;7.90;99.90
20102;DHT22;10210;52.284;9.892;2024-02-26T09:57:22;8.00;99.90
20102;DHT22;10210;52.284;9.892;2024-02-26T09:59:51;8.00;99.90
20102;DHT22;10210;52.284;9.892;2024-02-26T10:02:20;8.00;99.90
20102;DHT22;10210;52.284;9.892;2024-02-26T10:04:47;8.10;99.90
20102;DHT22;10210;52.284;9.892;2024-02-26T10:07:16;8.10;99.90
20102;DHT22;10210;52.284;9.892;2024-02-26T10:09:43;8.20;99.90
20102;DHT22;10210;52.284;9.892;2024-02-26T10:12:10;8.20;99.90
20102;DHT22;10210;52.284;9.892;2024-02-26T10:14:37;8.20;99.90
20102;DHT22;10210;52.284;9.892;2024-02-26T10:17:03;8.30;99.90
20102;DHT22;10210;52.284;9.892;2024-02-26T10:19:33;8.30;99.90
20102;DHT22;10210;52.284;9.892;2024-02-26T10:22:01;8.30;99.90
20102;DHT22;10210;52.284;9.892;2024-02-26T10:24:28;8.40;99.90
20102;DHT22;10210;52.284;9.892;2024-02-26T10:26:55;8.40;99.90
20102;DHT22;10210;52.284;9.892;2024-02-26T10:29:23;8.40;99.90
20102;DHT22;10210;52.284;9.892;2024-02-26T10:31:51;8.50;99.90
20102;DHT22;10210;52.284;9.892;2024-02-26T10:34:18;8.50;99.90
20102;DHT22;10210;52.284;9.892;2024-02-26T10:36:44;8.50;99.90
20102;DHT22;10210;52.284;9.892;2024-02-26T10:39:12;8.60;99.90
20102;DHT22;10210;52.284;9.892;2024-02-26T10:41:40;8.60;99.90
20102;DHT22;10210;52.284;9.892;2024-02-26T10:44:09;8.60;99.90
20102;DHT22;10210;52.284;9.892;2024-02-26T10:46:41;8.70;99.90
20102;DHT22;10210;52.284;9.892;2024-02-26T10:49:13;8.70;99.90
20102;DHT22;10210;52.284;9.892;2024-02-26T10:51:46;8.80;99.90
20102;DHT22;10210;52.284;9.892;2024-02-26T10:54:20;8.80;99.90
20102;DHT22;10210;52.284;9.892;2024-02-26T10:56:47;8.80;99.90
20102;DHT22;10210;52.284;9.892;2024-02-26T10:59:16;8.80;99.90
20102;DHT22;10210;52.284;9.892;2024-02-26T11:01:48;8.90;99.90
20102;DHT22;10210;52.284;9.892;2024-02-26T11:04:15;8.90;99.90
20102;DHT22;10210;52.284;9.892;2024-02-26T11:06:44;8.90;99.90
20102;DHT22;10210;52.284;9.892;2024-02-26T11:09:12;8.90;99.90
20102;DHT22;10210;52.284;9.892;2024-02-26T11:11:40;8.90;99.90
20102;DHT22;10210;52.284;9.892;2024-02-26T11:14:08;8.90;99.90
20102;DHT22;10210;52.284;9.892;2024-02-26T11:16:35;9.00;99.90
20102;DHT22;10210;52.284;9.892;2024-02-26T11:19:06;9.00;99.90
20102;DHT22;10210;52.284;9.892;2024-02-26T11:21:35;9.00;99.90
20102;DHT22;10210;52.284;9.892;2024-02-26T11:24:15;9.00;99.90
20102;DHT22;10210;52.284;9.892;2024-02-26T11:27:04;9.00;99.90
20102;DHT22;10210;52.284;9.892;2024-02-26T11:29:39;9.10;99.90
20102;DHT22;10210;52.284;9.892;2024-02-26T11:32:09;9.10;99.90
20102;DHT22;10210;52.284;9.892;2024-02-26T11:34:36;9.10;99.90
20102;DHT22;10210;52.284;9.892;2024-02-26T11:37:13;9.10;99.90
20102;DHT22;10210;52.284;9.892;2024-02-26T11:39:40;9.20;99.90
20102;DHT22;10210;52.284;9.892;2024-02-26T11:42:08;9.20;99.90
20102;DHT22;10210;52.284;9.892;2024-02-26T11:44:35;9.20;99.90
20102;DHT22;10210;52.284;9.892;2024-02-26T11:47:33;9.30;99.90
20102;DHT22;10210;52.284;9.892;2024-02-26T11:50:35;9.30;99.90
20102;DHT22;10210;52.284;9.892;2024-02-26T11:58:42;9.50;99.90
20102;DHT22;10210;52.284;9.892;2024-02-26T12:01:35;9.50;99.90
20102;DHT22;10210;52.284;9.892;2024-02-26T12:04:05;9.50;99.90
20102;DHT22;10210;52.284;9.892;2024-02-26T12:06:55;9.50;99.90
20102;DHT22;10210;52.284;9.892;2024-02-26T12:09:41;9.60;99.90
20102;DHT22;10210;52.284;9.892;2024-02-26T12:12:09;9.60;99.90
20102;DHT22;10210;52.284;9.892;2024-02-26T12:14:40;9.60;99.90
20102;DHT22;10210;52.284;9.892;2024-02-26T12:17:22;9.70;99.90
20102;DHT22;10210;52.284;9.892;2024-02-26T12:19:50;9.70;99.90
20102;DHT22;10210;52.284;9.892;2024-02-26T12:22:18;9.70;99.90
20102;DHT22;10210;52.284;9.892;2024-02-26T12:24:44;9.80;99.90
20102;DHT22;10210;52.284;9.892;2024-02-26T12:27:10;9.80;99.90
20102;DHT22;10210;52.284;9.892;2024-02-26T12:29:36;9.90;99.90
20102;DHT22;10210;52.284;9.892;2024-02-26T12:32:03;9.90;99.90
20102;DHT22;10210;52.284;9.892;2024-02-26T12:34:31;10.00;99.90
20102;DHT22;10210;52.284;9.892;2024-02-26T12:36:57;10.00;99.90
20102;DHT22;10210;52.284;9.892;2024-02-26T12:39:23;10.10;99.90
20102;DHT22;10210;52.284;9.892;2024-02-26T12:41:49;10.20;99.90
20102;DHT22;10210;52.284;9.892;2024-02-26T12:44:16;10.20;99.90
20102;DHT22;10210;52.284;9.892;2024-02-26T12:46:43;10.30;99.90
20102;DHT22;10210;52.284;9.892;2024-02-26T12:49:14;10.30;99.90
20102;DHT22;10210;52.284;9.892;2024-02-26T12:51:44;10.40;99.90
20102;DHT22;10210;52.284;9.892;2024-02-26T12:54:11;10.40;99.90
20102;DHT22;10210;52.284;9.892;2024-02-26T12:56:37;10.50;99.90
20102;DHT22;10210;52.284;9.892;2024-02-26T12:59:03;10.50;99.90
20102;DHT22;10210;52.284;9.892;2024-02-26T13:01:30;10.60;99.90
20102;DHT22;10210;52.284;9.892;2024-02-26T13:03:56;10.60;99.90
20102;DHT22;10210;52.284;9.892;2024-02-26T13:06:22;10.70;99.90
20102;DHT22;10210;52.284;9.892;2024-02-26T13:08:48;10.70;99.90
20102;DHT22;10210;52.284;9.892;2024-02-26T13:11:15;10.80;99.90
20102;DHT22;10210;52.284;9.892;2024-02-26T13:13:41;10.80;99.90
20102;DHT22;10210;52.284;9.892;2024-02-26T13:16:14;10.90;99.90
20102;DHT22;10210;52.284;9.892;2024-02-26T13:18:40;10.90;99.90
20102;DHT22;10210;52.284;9.892;2024-02-26T13:21:11;10.90;99.90
20102;DHT22;10210;52.284;9.892;2024-02-26T13:23:39;10.90;99.90
20102;DHT22;10210;52.284;9.892;2024-02-26T13:26:05;11.00;99.90
20102;DHT22;10210;52.284;9.892;2024-02-26T13:28:31;11.00;99.90
20102;DHT22;10210;52.284;9.892;2024-02-26T13:30:58;11.00;99.90
20102;DHT22;10210;52.284;9.892;2024-02-26T13:33:27;11.10;99.90
20102;DHT22;10210;52.284;9.892;2024-02-26T13:35:55;11.10;99.90
20102;DHT22;10210;52.284;9.892;2024-02-26T13:38:22;11.10;99.90
20102;DHT22;10210;52.284;9.892;2024-02-26T13:40:50;11.10;99.90
20102;DHT22;10210;52.284;9.892;2024-02-26T13:43:16;11.10;99.90
20102;DHT22;10210;52.284;9.892;2024-02-26T13:45:46;11.10;99.90
20102;DHT22;10210;52.284;9.892;2024-02-26T13:48:13;11.00;99.90
20102;DHT22;10210;52.284;9.892;2024-02-26T13:50:40;11.00;99.90
20102;DHT22;10210;52.284;9.892;2024-02-26T13:53:08;11.00;99.90
20102;DHT22;10210;52.284;9.892;2024-02-26T13:55:34;11.00;99.90
20102;DHT22;10210;52.284;9.892;2024-02-26T13:58:00;11.00;99.90
20102;DHT22;10210;52.284;9.892;2024-02-26T14:00:27;10.90;99.90
20102;DHT22;10210;52.284;9.892;2024-02-26T14:02:54;10.90;99.90
20102;DHT22;10210;52.284;9.892;2024-02-26T14:05:20;10.90;99.90
20102;DHT22;10210;52.284;9.892;2024-02-26T14:07:46;10.90;99.90
20102;DHT22;10210;52.284;9.892;2024-02-26T14:10:12;10.90;99.90
20102;DHT22;10210;52.284;9.892;2024-02-26T14:12:38;10.80;99.90
20102;DHT22;10210;52.284;9.892;2024-02-26T14:15:06;10.80;99.90
20102;DHT22;10210;52.284;9.892;2024-02-26T14:17:32;10.80;99.90
20102;DHT22;10210;52.284;9.892;2024-02-26T14:19:58;10.80;99.90
20102;DHT22;10210;52.284;9.892;2024-02-26T14:22:25;10.80;99.90
20102;DHT22;10210;52.284;9.892;2024-02-26T14:24:53;10.80;99.90
20102;DHT22;10210;52.284;9.892;2024-02-26T14:27:19;10.80;99.90
20102;DHT22;10210;52.284;9.892;2024-02-26T14:29:47;10.80;99.90
20102;DHT22;10210;52.284;9.892;2024-02-26T14:32:14;10.80;99.90
20102;DHT22;10210;52.284;9.892;2024-02-26T14:34:40;10.80;99.90
20102;DHT22;10210;52.284;9.892;2024-02-26T14:37:06;10.80;99.90
20102;DHT22;10210;52.284;9.892;2024-02-26T14:39:32;10.80;99.90
20102;DHT22;10210;52.284;9.892;2024-02-26T14:41:59;10.80;99.90
20102;DHT22;10210;52.284;9.892;2024-02-26T14:44:25;10.80;99.90
20102;DHT22;10210;52.284;9.892;2024-02-26T14:46:51;10.70;99.90
20102;DHT22;10210;52.284;9.892;2024-02-26T14:49:18;10.80;99.90
20102;DHT22;10210;52.284;9.892;2024-02-26T14:51:44;10.70;99.90
20102;DHT22;10210;52.284;9.892;2024-02-26T14:54:14;10.70;99.90
20102;DHT22;10210;52.284;9.892;2024-02-26T14:56:40;10.70;99.90
20102;DHT22;10210;52.284;9.892;2024-02-26T14:59:06;10.70;99.90
20102;DHT22;10210;52.284;9.892;2024-02-26T15:01:32;10.70;99.90
20102;DHT22;10210;52.284;9.892;2024-02-26T15:03:58;10.70;99.90
20102;DHT22;10210;52.284;9.892;2024-02-26T15:06:25;10.70;99.90
20102;DHT22;10210;52.284;9.892;2024-02-26T15:08:51;10.70;99.90
20102;DHT22;10210;52.284;9.892;2024-02-26T15:11:19;10.70;99.90
20102;DHT22;10210;52.284;9.892;2024-02-26T15:13:45;10.70;99.90
20102;DHT22;10210;52.284;9.892;2024-02-26T15:16:19;10.70;99.90
20102;DHT22;10210;52.284;9.892;2024-02-26T15:18:48;10.70;99.90
20102;DHT22;10210;52.284;9.892;2024-02-26T15:21:14;10.70;99.90
20102;DHT22;10210;52.284;9.892;2024-02-26T15:23:42;10.70;99.90
20102;DHT22;10210;52.284;9.892;2024-02-26T15:26:10;10.70;99.90
20102;DHT22;10210;52.284;9.892;2024-02-26T15:28:36;10.70;99.90
20102;DHT22;10210;52.284;9.892;2024-02-26T15:31:02;10.70;99.90
20102;DHT22;10210;52.284;9.892;2024-02-26T15:33:27;10.70;99.90
20102;DHT22;10210;52.284;9.892;2024-02-26T15:35:53;10.70;99.90
20102;DHT22;10210;52.284;9.892;2024-02-26T15:38:19;10.70;99.90
20102;DHT22;10210;52.284;9.892;2024-02-26T15:40:45;10.70;99.90
20102;DHT22;10210;52.284;9.892;2024-02-26T15:43:12;10.70;99.90
20102;DHT22;10210;52.284;9.892;2024-02-26T15:45:38;10.60;99.90
20102;DHT22;10210;52.284;9.892;2024-02-26T15:48:04;10.60;99.90